createdAt,value
2023-02-13T00:01:00.591Z,18.50
2023-02-13T00:06:04.652Z,17.25
2023-02-13T00:11:08.703Z,17.75
2023-02-13T00:16:13.271Z,20.25
2023-02-13T00:21:17.391Z,19.50
2023-02-13T00:26:21.421Z,20.00
2023-02-13T00:31:25.774Z,18.75
2023-02-13T00:36:29.880Z,16.50
2023-02-13T00:41:33.989Z,14.25
2023-02-13T00:46:38.812Z,16.50
2023-02-13T00:51:42.936Z,19.50
2023-02-13T00:56:46.976Z,20.00
2023-02-13T01:01:51.108Z,19.00
2023-02-13T01:06:55.380Z,21.50
2023-02-13T01:11:59.396Z,23.25
2023-02-13T01:17:03.923Z,23.00
2023-02-13T01:22:09.527Z,18.75
2023-02-13T01:27:13.578Z,19.00
2023-02-13T01:32:17.825Z,25.25
2023-02-13T01:37:22.079Z,17.25
2023-02-13T01:42:30.654Z,18.25
2023-02-13T01:47:41.950Z,18.75
2023-02-13T01:52:48.777Z,22.50
2023-02-13T01:57:56.063Z,20.50
2023-02-13T02:03:03.198Z,31.25
2023-02-13T02:08:11.712Z,23.25
2023-02-13T02:13:19.808Z,29.25
2023-02-13T02:18:24.977Z,26.50
2023-02-13T02:23:44.515Z,26.75
2023-02-13T02:28:48.706Z,19.75
2023-02-13T02:34:19.696Z,23.50
2023-02-13T02:39:40.029Z,30.50
2023-02-13T02:44:44.780Z,23.00
2023-02-13T02:50:00.981Z,22.00
2023-02-13T02:55:17.557Z,27.25
2023-02-13T03:00:48.441Z,22.00
2023-02-13T03:06:11.610Z,25.25
2023-02-13T03:11:33.610Z,25.75
2023-02-13T03:16:56.302Z,22.75
2023-02-13T03:22:22.065Z,22.50
2023-02-13T03:27:50.932Z,23.00
2023-02-13T03:32:55.546Z,27.00
2023-02-13T03:38:06.432Z,25.50
2023-02-13T03:43:14.189Z,25.25
2023-02-13T03:48:39.671Z,28.00
2023-02-13T03:53:45.566Z,23.25
2023-02-13T03:59:11.480Z,26.25
2023-02-13T04:04:33.392Z,27.75
2023-02-13T04:09:39.133Z,28.25
2023-02-13T04:14:43.491Z,25.75
2023-02-13T04:19:48.103Z,22.25
2023-02-13T04:24:52.605Z,30.25
2023-02-13T04:29:57.195Z,22.75
2023-02-13T04:35:02.085Z,19.25
2023-02-13T04:40:06.985Z,26.00
2023-02-13T04:45:11.495Z,27.50
2023-02-13T04:50:16.176Z,25.75
2023-02-13T04:55:20.934Z,27.25
2023-02-13T05:00:26.877Z,25.75
2023-02-13T05:05:31.508Z,22.00
2023-02-13T05:10:36.088Z,24.00
2023-02-13T05:15:40.694Z,21.00
2023-02-13T05:20:45.311Z,19.50
2023-02-13T05:25:49.957Z,24.50
2023-02-13T05:30:54.805Z,21.50
2023-02-13T05:35:59.004Z,22.75
2023-02-13T05:41:03.426Z,32.75
2023-02-13T05:46:09.374Z,25.25
2023-02-13T05:51:13.550Z,26.25
2023-02-13T05:56:18.307Z,26.75
2023-02-13T06:01:22.722Z,31.25
2023-02-13T06:06:26.902Z,22.75
2023-02-13T06:11:31.123Z,27.75
2023-02-13T06:16:35.945Z,24.25
2023-02-13T06:21:40.247Z,29.00
2023-02-13T06:26:44.420Z,23.00
2023-02-13T06:31:48.526Z,28.50
2023-02-13T06:36:54.014Z,25.25
2023-02-13T06:41:58.072Z,23.25
2023-02-13T06:47:02.390Z,27.00
2023-02-13T06:52:07.223Z,20.75
2023-02-13T06:57:11.412Z,26.75
2023-02-13T07:02:15.750Z,19.50
2023-02-13T07:07:19.846Z,22.00
2023-02-13T07:12:23.907Z,23.00
2023-02-13T07:17:28.106Z,21.00
2023-02-13T07:22:33.771Z,19.50
2023-02-13T07:27:37.997Z,22.75
2023-02-13T07:32:42.148Z,25.50
2023-02-13T07:37:46.200Z,20.50
2023-02-13T07:42:50.279Z,24.00
2023-02-13T07:47:56.473Z,25.00
2023-02-13T07:53:01.950Z,22.50
2023-02-13T07:58:06.281Z,21.50
2023-02-13T08:03:11.513Z,24.50
2023-02-13T08:08:15.548Z,23.00
2023-02-13T08:13:19.943Z,29.75
2023-02-13T08:18:24.018Z,23.25
2023-02-13T08:23:28.194Z,23.75
2023-02-13T08:28:32.607Z,25.25
2023-02-13T08:33:36.693Z,24.50
2023-02-13T08:43:50.474Z,22.75
2023-02-13T08:48:54.545Z,20.00
2023-02-13T08:53:59.210Z,27.25
2023-02-13T08:59:03.543Z,25.00
2023-02-13T09:04:07.645Z,22.75
2023-02-13T09:09:12.165Z,24.00
2023-02-13T09:14:16.409Z,22.50
2023-02-13T09:19:20.628Z,33.00
2023-02-13T09:24:24.827Z,24.25
2023-02-13T09:29:32.566Z,23.25
2023-02-13T09:34:36.635Z,21.75
2023-02-13T09:39:40.716Z,17.00
2023-02-13T09:44:45.873Z,20.75
2023-02-13T09:49:55.991Z,34.25
2023-02-13T09:55:00.013Z,28.50
2023-02-13T10:00:04.309Z,25.00
2023-02-13T10:05:25.402Z,21.00
2023-02-13T10:10:35.360Z,29.50
2023-02-13T10:15:48.090Z,26.50
2023-02-13T10:20:52.235Z,32.75
2023-02-13T10:26:13.962Z,26.00
2023-02-13T10:31:19.829Z,26.50
2023-02-13T10:36:28.456Z,21.25
2023-02-13T10:41:51.334Z,17.75
2023-02-13T10:47:17.522Z,25.25
2023-02-13T10:52:21.612Z,16.50
2023-02-13T10:57:45.614Z,19.25
2023-02-13T11:02:50.437Z,18.75
2023-02-13T11:07:55.328Z,21.50
2023-02-13T11:13:16.148Z,16.75
2023-02-13T11:18:22.390Z,19.50
2023-02-13T11:23:29.642Z,18.00
2023-02-13T11:28:36.092Z,18.50
2023-02-13T11:33:40.801Z,22.50
2023-02-13T11:38:45.273Z,15.50
2023-02-13T11:44:02.189Z,24.50
2023-02-13T11:49:08.476Z,18.75
2023-02-13T11:54:33.123Z,24.00
2023-02-13T11:59:42.754Z,16.00
2023-02-13T12:04:47.880Z,23.00
2023-02-13T12:10:04.509Z,24.25
2023-02-13T12:15:27.155Z,16.75
2023-02-13T12:20:36.337Z,20.75
2023-02-13T12:26:16.042Z,21.25
2023-02-13T12:31:39.309Z,17.25
2023-02-13T12:36:44.066Z,16.00
2023-02-13T12:42:11.134Z,16.00
2023-02-13T12:47:19.334Z,18.00
2023-02-13T12:52:29.856Z,15.00
2023-02-13T12:58:59.387Z,14.25
2023-02-13T13:04:10.063Z,14.75
2023-02-13T13:09:17.755Z,12.50
2023-02-13T13:14:22.505Z,12.50
2023-02-13T13:19:33.149Z,18.50
2023-02-13T13:24:50.787Z,15.25
2023-02-13T13:29:58.223Z,12.75
2023-02-13T13:35:06.947Z,15.00
2023-02-13T13:40:21.008Z,16.00
2023-02-13T13:45:43.435Z,17.75
2023-02-13T13:50:49.063Z,16.75
2023-02-13T13:56:10.509Z,14.25
2023-02-13T14:01:30.814Z,17.25
2023-02-13T14:06:47.963Z,18.00
2023-02-13T14:11:53.506Z,16.25
2023-02-13T14:16:59.378Z,19.00
2023-02-13T14:22:21.790Z,16.00
2023-02-13T14:27:32.251Z,21.25
2023-02-13T14:32:41.212Z,18.00
2023-02-13T14:37:56.400Z,22.00
2023-02-13T14:43:19.009Z,19.00
2023-02-13T14:48:25.518Z,18.00
2023-02-13T14:53:35.481Z,20.00
2023-02-13T14:58:43.507Z,20.75
2023-02-13T15:03:56.427Z,23.00
2023-02-13T15:09:03.773Z,24.00
2023-02-13T15:14:18.645Z,21.25
2023-02-13T15:19:24.305Z,19.50
2023-02-13T15:24:29.275Z,31.00
2023-02-13T15:29:48.854Z,24.00
2023-02-13T15:34:53.727Z,33.25
2023-02-13T15:39:58.071Z,36.25
2023-02-13T15:45:02.619Z,37.75
2023-02-13T15:50:16.293Z,36.50
2023-02-13T15:55:22.374Z,53.25
2023-02-13T16:00:31.273Z,47.75
2023-02-13T16:05:40.510Z,42.50
2023-02-13T16:10:45.212Z,46.75
2023-02-13T16:15:49.458Z,53.25
2023-02-13T16:20:57.781Z,52.75
2023-02-13T16:26:04.431Z,47.75
2023-02-13T16:31:09.756Z,58.00
2023-02-13T16:36:14.105Z,48.25
2023-02-13T16:41:23.279Z,50.50
2023-02-13T16:46:27.858Z,50.25
2023-02-13T16:51:35.113Z,53.50
2023-02-13T16:56:42.469Z,48.75
2023-02-13T17:01:47.112Z,52.75
2023-02-13T17:07:00.773Z,52.50
2023-02-13T17:12:06.276Z,48.50
2023-02-13T17:17:21.982Z,48.25
2023-02-13T17:22:43.951Z,47.25
2023-02-13T17:27:48.495Z,51.50
2023-02-13T17:32:56.319Z,50.00
2023-02-13T17:38:01.029Z,48.00
2023-02-13T17:43:06.405Z,48.00
2023-02-13T17:48:10.735Z,38.25
2023-02-13T17:53:29.229Z,45.25
2023-02-13T17:58:33.752Z,46.00
2023-02-13T18:03:38.299Z,44.00
2023-02-13T18:08:42.634Z,35.00
2023-02-13T18:13:49.712Z,37.25
2023-02-13T18:18:54.201Z,38.75
2023-02-13T18:23:58.818Z,35.00
2023-02-13T18:29:03.594Z,34.50
2023-02-13T18:34:08.321Z,38.00
2023-02-13T18:39:13.062Z,26.75
2023-02-13T18:44:28.122Z,36.25
2023-02-13T18:49:33.154Z,30.00
2023-02-13T18:54:37.754Z,33.25
2023-02-13T18:59:42.365Z,27.25
2023-02-13T19:04:47.148Z,33.00
2023-02-13T19:09:51.211Z,28.50
2023-02-13T19:14:55.533Z,26.50
2023-02-13T19:20:00.203Z,25.00
2023-02-13T19:25:04.847Z,26.75
2023-02-13T19:30:10.854Z,26.75
2023-02-13T19:35:15.316Z,24.25
2023-02-13T19:40:20.327Z,31.25
2023-02-13T19:45:24.374Z,25.50
2023-02-13T19:50:28.656Z,27.00
2023-02-13T19:55:33.315Z,27.25
2023-02-13T20:00:37.995Z,25.00
2023-02-13T20:05:42.902Z,21.25
2023-02-13T20:10:47.698Z,20.25
2023-02-13T20:15:52.178Z,18.50
2023-02-13T20:20:56.954Z,22.25
2023-02-13T20:26:08.885Z,18.25
2023-02-13T20:31:15.384Z,19.25
2023-02-13T20:36:22.290Z,17.75
2023-02-13T20:41:31.327Z,22.50
2023-02-13T20:46:36.711Z,20.00
2023-02-13T20:51:41.181Z,21.25
2023-02-13T20:56:47.175Z,17.00
2023-02-13T21:01:51.805Z,17.50
2023-02-13T21:06:56.961Z,24.50
2023-02-13T21:12:01.458Z,16.75
2023-02-13T21:17:05.867Z,21.00
2023-02-13T21:22:13.295Z,20.00
2023-02-13T21:27:17.935Z,19.50
2023-02-13T21:32:23.350Z,19.50
2023-02-13T21:37:27.944Z,16.50
2023-02-13T21:42:32.409Z,16.75
2023-02-13T21:47:36.488Z,17.00
2023-02-13T21:52:40.971Z,17.75
2023-02-13T21:57:45.569Z,20.75
2023-02-13T22:02:50.175Z,17.00
2023-02-13T22:08:13.160Z,16.25
2023-02-13T22:13:17.724Z,19.00
2023-02-13T22:18:22.298Z,18.00
2023-02-13T22:23:27.201Z,19.00
2023-02-13T22:28:32.044Z,21.50
2023-02-13T22:33:36.706Z,20.00
2023-02-13T22:38:41.737Z,14.00
2023-02-13T22:43:46.824Z,19.50
2023-02-13T22:48:56.236Z,18.50
2023-02-13T22:54:01.203Z,18.50
2023-02-13T22:59:05.854Z,17.75
2023-02-13T23:04:10.545Z,22.00
2023-02-13T23:09:15.079Z,17.75
2023-02-13T23:14:19.608Z,22.75
2023-02-13T23:19:24.318Z,22.75
2023-02-13T23:24:29.486Z,23.50
2023-02-13T23:29:34.013Z,16.50
2023-02-13T23:34:38.742Z,25.50
2023-02-13T23:39:43.245Z,26.75
2023-02-13T23:44:47.409Z,22.25
2023-02-13T23:49:51.933Z,22.25
2023-02-13T23:54:56.457Z,25.50
